メインページ
METAR-TAF:

METAR-TAF

空港 :

ベン・グリオン国際空港

テルアビブ / ベン・グリオン, イスラエル

緯度: 32-00N, 経度: 034-54E, 海抜: 40m

現時点の気象観測

当レポートは11分前の10:20(UTC)に作成
西の風 11kt
気温 31°C
湿度 43%
気圧 1010 hPa
視程10km以上
高度4000ftの雲はほとんどない

METAR: LLBG 191020Z 27011KT 9999 FEW040 31/17 Q1010 NOSIG

時間: 13:31 (10:31 UTC)

予報

当レポートは5時間29分前の05:02(UTC)に作成
予報は19日の 06時(UTC)から 20日の 06時(UTC)まで有効
変向風 3kt
視程10km以上
高度3000ftの雲はほとんどない
19日の 07時(UTC)から 19日の 09時(UTC)まで徐々に
西/北西の風 10kt
視程10km以上
1,500メートル以下は雲なし、積乱雲なし
19日の 15時(UTC)から 19日の 17時(UTC)まで徐々に
の風 6kt
20日の 00時(UTC)から 20日の 02時(UTC)まで徐々に
変向風 3kt

TAF: LLBG 190502Z 1906/2006 VRB03KT 9999 FEW030 BECMG 1907/1909 30010KT CAVOK BECMG 1915/1917 36006KT BECMG 2000/2002 VRB03KT TX32/1911Z TN21/2004Z

4,000以上の空港の気象観測と天気予報(METAR報とTAF報)

利用可能な観測所は地図上に黄色い丸と赤い丸で示す。

丸の上にカーソルを重ねると観測所名を参照できる。

次にクリックすると気象観測と天気予報を参照できる。

マップの切り替え:黒色「×」印の緑ボタンをクリックして拡大、「-」印の緑ボタンをクリックして縮小、緑色の三角印をクリックして隣りの地図に切り替え


METAR-TAF: